Time;durP1;ratioP1;P1;durP2;ratioP2;P2;SDS_P1;SDS_P2;PMS_P1;PMS_P2;Temp;Humidity;BMP_temperature;BMP_pressure;BME280_temperature;BME280_humidity;BME280_pressure;Samples;Min_cycle;Max_cycle;Signal;HPM_P1;HPM_P2
2022/06/29 00:02:24;;;;;;;;;;;22.10;68.80;;;;;;5072042;28;1313;-70
2022/06/29 00:04:49;;;;;;;;;;;22.10;68.80;;;;;;5072024;28;1894;-69
2022/06/29 00:07:14;;;;;;;;;;;22.10;68.80;;;;;;5072555;28;1355;-69
2022/06/29 00:09:40;;;;;;;;;;;22.10;68.90;;;;;;5072505;28;1253;-68
2022/06/29 00:12:06;;;;;;;;;;;22.10;68.80;;;;;;5072007;28;1305;-68
2022/06/29 00:14:31;;;;;;;;;;;22.10;68.90;;;;;;5071894;28;1349;-68
2022/06/29 00:16:56;;;;;;;;;;;22.10;68.80;;;;;;5072006;28;1340;-67
2022/06/29 00:19:22;;;;;;;;;;;22.10;68.80;;;;;;5054016;28;1177;-70
2022/06/29 00:21:47;;;;;;;;;;;22.10;68.80;;;;;;5072032;28;1275;-69
2022/06/29 00:24:13;;;;;;;;;;;22.10;68.80;;;;;;5053520;28;1965;-69
2022/06/29 00:26:38;;;;;;;;;;;22.10;68.90;;;;;;5072377;28;1393;-69
2022/06/29 00:29:04;;;;;;;;;;;22.10;68.90;;;;;;5072297;28;1275;-69
2022/06/29 00:31:29;;;;;;;;;;;22.10;68.90;;;;;;5071922;28;1239;-70
2022/06/29 00:33:54;;;;;;;;;;;22.10;68.90;;;;;;5071249;28;1111;-69
2022/06/29 00:36:20;;;;;;;;;;;22.10;68.90;;;;;;5053992;28;1279;-69
2022/06/29 00:38:45;;;;;;;;;;;22.10;68.90;;;;;;5072181;28;1386;-69
2022/06/29 00:41:11;;;;;;;;;;;22.10;68.90;;;;;;5071945;28;1431;-69
2022/06/29 00:43:40;;;;;;;;;;;22.10;68.90;;;;;;5071445;28;1959;-69
2022/06/29 00:46:05;;;;;;;;;;;22.10;68.90;;;;;;5053642;28;1228;-69
2022/06/29 00:48:31;;;;;;;;;;;22.10;69.00;;;;;;5071874;28;1305;-69
2022/06/29 00:50:56;;;;;;;;;;;22.10;68.90;;;;;;5074266;28;1322;-69
2022/06/29 00:53:22;;;;;;;;;;;22.10;68.90;;;;;;5057742;28;1280;-69
2022/06/29 00:55:47;;;;;;;;;;;22.10;68.90;;;;;;5074957;28;1353;-69
2022/06/29 00:58:13;;;;;;;;;;;22.10;69.00;;;;;;5076018;28;1275;-67
2022/06/29 01:00:39;;;;;;;;;;;22.10;69.00;;;;;;5057809;28;1273;-67
2022/06/29 01:03:04;;;;;;;;;;;22.10;68.90;;;;;;5075346;28;1945;-67
2022/06/29 01:05:30;;;;;;;;;;;22.10;69.00;;;;;;5074268;28;1290;-67
2022/06/29 01:07:56;;;;;;;;;;;22.10;69.00;;;;;;5075630;28;1373;-69
2022/06/29 01:10:21;;;;;;;;;;;22.10;69.00;;;;;;5054068;28;2201;-69
2022/06/29 01:12:48;;;;;;;;;;;22.10;69.00;;;;;;5050945;28;1617;-69
2022/06/29 01:15:13;;;;;;;;;;;22.10;69.00;;;;;;5056129;28;1363;-69
2022/06/29 01:17:38;;;;;;;;;;;22.10;69.00;;;;;;5067193;28;1524;-69
2022/06/29 01:20:04;;;;;;;;;;;22.10;69.00;;;;;;5062122;28;1674;-69
2022/06/29 01:22:30;;;;;;;;;;;22.10;69.00;;;;;;5075102;28;1379;-69
2022/06/29 01:24:55;;;;;;;;;;;22.10;69.00;;;;;;5074461;28;1905;-69
2022/06/29 01:27:23;;;;;;;;;;;22.10;69.00;;;;;;5075468;28;1373;-69
2022/06/29 01:29:48;;;;;;;;;;;22.10;69.00;;;;;;5074901;28;1772;-69
2022/06/29 01:32:13;;;;;;;;;;;22.10;69.00;;;;;;5075087;28;1696;-69
2022/06/29 01:34:39;;;;;;;;;;;22.10;69.00;;;;;;5074381;28;1677;-69
2022/06/29 01:37:04;;;;;;;;;;;22.10;69.00;;;;;;5056658;28;1377;-69
2022/06/29 01:39:30;;;;;;;;;;;22.10;69.10;;;;;;5060423;28;1711;-69
2022/06/29 01:41:56;;;;;;;;;;;22.10;69.10;;;;;;5057042;28;1673;-68
2022/06/29 01:44:21;;;;;;;;;;;22.10;69.10;;;;;;5056181;28;1910;-69
2022/06/29 01:46:46;;;;;;;;;;;22.10;69.80;;;;;;5053904;28;2148;-69
2022/06/29 01:49:12;;;;;;;;;;;22.10;69.10;;;;;;5052343;28;1264;-69
2022/06/29 01:51:37;;;;;;;;;;;22.10;69.10;;;;;;5056211;28;1279;-70
2022/06/29 01:54:03;;;;;;;;;;;22.10;69.10;;;;;;5039601;28;1376;-69
2022/06/29 01:56:28;;;;;;;;;;;22.10;69.10;;;;;;5074698;28;1313;-69
2022/06/29 01:58:54;;;;;;;;;;;22.10;69.10;;;;;;5056720;28;1312;-69
2022/06/29 02:01:19;;;;;;;;;;;22.10;69.10;;;;;;5072684;28;1352;-70
2022/06/29 02:03:44;;;;;;;;;;;22.10;69.10;;;;;;5054270;28;1961;-70
2022/06/29 02:06:10;;;;;;;;;;;22.10;69.10;;;;;;5063106;28;1258;-70
2022/06/29 02:08:35;;;;;;;;;;;22.10;69.10;;;;;;5074458;28;1406;-70
2022/06/29 02:11:01;;;;;;;;;;;22.10;69.10;;;;;;5073801;28;1273;-69
2022/06/29 02:13:27;;;;;;;;;;;22.10;69.10;;;;;;5074869;28;1372;-69
2022/06/29 02:15:52;;;;;;;;;;;22.10;69.10;;;;;;5073969;28;1282;-69
2022/06/29 02:18:18;;;;;;;;;;;22.10;69.10;;;;;;5072442;28;1325;-69
2022/06/29 02:20:43;;;;;;;;;;;22.10;69.20;;;;;;5055944;28;1266;-69
2022/06/29 02:23:08;;;;;;;;;;;22.10;69.20;;;;;;5074028;28;1967;-68
2022/06/29 02:25:34;;;;;;;;;;;22.10;69.10;;;;;;5073520;28;1254;-70
2022/06/29 02:27:59;;;;;;;;;;;22.10;69.20;;;;;;5073779;28;1311;-69
2022/06/29 02:34:43;;;;;;;;;;;22.10;69.20;;;;;;5071641;28;2187;-69
2022/06/29 02:35:54;;;;;;;;;;;22.10;69.20;;;;;;5073126;28;1203;-69
2022/06/29 02:38:20;;;;;;;;;;;22.10;69.20;;;;;;5073802;28;1314;-70
2022/06/29 02:40:45;;;;;;;;;;;22.10;69.20;;;;;;5073577;28;1573;-69
2022/06/29 02:43:11;;;;;;;;;;;22.10;69.20;;;;;;5073633;28;1963;-70
2022/06/29 02:45:36;;;;;;;;;;;22.10;69.40;;;;;;5072880;28;1247;-69
2022/06/29 02:48:02;;;;;;;;;;;22.10;69.20;;;;;;5073535;28;1483;-69
2022/06/29 02:50:27;;;;;;;;;;;22.10;69.20;;;;;;5073093;28;1353;-69
2022/06/29 02:52:53;;;;;;;;;;;22.10;69.20;;;;;;5073303;28;1389;-69
2022/06/29 02:55:18;;;;;;;;;;;22.10;69.20;;;;;;5073174;28;1344;-70
2022/06/29 02:57:43;;;;;;;;;;;22.10;69.20;;;;;;5055151;28;1335;-70
2022/06/29 03:00:09;;;;;;;;;;;22.10;69.20;;;;;;5073283;28;1162;-70
2022/06/29 03:02:35;;;;;;;;;;;22.10;69.20;;;;;;5055454;28;1307;-69
2022/06/29 03:05:00;;;;;;;;;;;22.10;69.30;;;;;;5072925;28;1894;-69
2022/06/29 03:07:26;;;;;;;;;;;22.10;69.30;;;;;;5073867;28;1346;-69
2022/06/29 03:09:51;;;;;;;;;;;22.10;69.20;;;;;;5072734;28;1337;-70
2022/06/29 03:12:17;;;;;;;;;;;22.10;69.20;;;;;;5072535;28;1344;-69
2022/06/29 03:14:42;;;;;;;;;;;22.10;69.20;;;;;;5072446;28;1331;-70
2022/06/29 03:17:08;;;;;;;;;;;22.10;69.20;;;;;;5073075;28;1397;-70
2022/06/29 03:19:34;;;;;;;;;;;22.10;69.30;;;;;;5061009;28;1051;-70
2022/06/29 03:21:59;;;;;;;;;;;22.10;69.30;;;;;;5072195;28;1424;-69
2022/06/29 03:24:25;;;;;;;;;;;22.10;69.30;;;;;;5072418;28;1963;-70
2022/06/29 03:26:50;;;;;;;;;;;22.10;69.30;;;;;;5072511;28;1255;-70
2022/06/29 03:29:16;;;;;;;;;;;22.10;69.30;;;;;;5072518;28;1317;-69
2022/06/29 03:31:41;;;;;;;;;;;22.10;69.30;;;;;;5072891;28;1420;-69
2022/06/29 03:34:07;;;;;;;;;;;22.10;69.30;;;;;;5054434;28;1364;-69
2022/06/29 03:36:32;;;;;;;;;;;22.10;69.20;;;;;;5072324;28;1318;-70
2022/06/29 03:38:57;;;;;;;;;;;22.10;69.30;;;;;;5055017;28;1375;-70
2022/06/29 03:41:23;;;;;;;;;;;22.10;69.30;;;;;;5072469;28;1310;-70
2022/06/29 03:43:48;;;;;;;;;;;22.10;70.10;;;;;;5072675;28;1890;-70
2022/06/29 03:46:14;;;;;;;;;;;22.10;69.30;;;;;;5072550;28;1353;-70
2022/06/29 03:48:39;;;;;;;;;;;22.10;69.30;;;;;;5073040;28;1079;-70
2022/06/29 03:51:05;;;;;;;;;;;22.10;69.30;;;;;;5054360;28;1353;-70
2022/06/29 03:53:30;;;;;;;;;;;22.10;69.30;;;;;;5054505;28;1337;-70
2022/06/29 03:55:56;;;;;;;;;;;22.10;69.30;;;;;;5072005;28;1313;-69
2022/06/29 03:58:21;;;;;;;;;;;22.10;69.30;;;;;;5073137;28;1070;-70
2022/06/29 04:00:47;;;;;;;;;;;22.10;69.30;;;;;;5072933;28;1282;-70
2022/06/29 04:03:12;;;;;;;;;;;22.10;69.30;;;;;;5072866;28;1957;-69
2022/06/29 04:05:38;;;;;;;;;;;22.10;69.30;;;;;;5072616;28;1083;-70
2022/06/29 04:08:03;;;;;;;;;;;22.10;69.30;;;;;;5072813;28;1135;-70
2022/06/29 04:10:29;;;;;;;;;;;22.10;69.30;;;;;;5054365;28;1427;-69
2022/06/29 04:12:54;;;;;;;;;;;22.10;69.40;;;;;;5072425;28;1243;-70
2022/06/29 04:15:20;;;;;;;;;;;22.10;69.40;;;;;;5072134;28;1380;-69
2022/06/29 04:17:45;;;;;;;;;;;22.10;69.40;;;;;;5054774;28;1295;-69
2022/06/29 04:21:05;;;;;;;;;;;22.10;69.40;;;;;;5072215;28;1328;-69
2022/06/29 04:22:59;;;;;;;;;;;22.10;69.40;;;;;;5072156;28;1395;-69
2022/06/29 04:25:24;;;;;;;;;;;22.10;69.40;;;;;;5072968;28;1973;-69
2022/06/29 04:27:50;;;;;;;;;;;22.10;69.40;;;;;;5076644;28;1239;-70
2022/06/29 04:30:15;;;;;;;;;;;22.10;69.40;;;;;;5076505;28;1683;-69
2022/06/29 04:32:41;;;;;;;;;;;22.10;70.10;;;;;;5076102;28;1294;-69
2022/06/29 04:35:06;;;;;;;;;;;22.10;69.40;;;;;;5075363;28;1289;-70
2022/06/29 04:37:32;;;;;;;;;;;22.10;69.40;;;;;;5076527;28;1282;-69
2022/06/29 04:40:00;;;;;;;;;;;22.10;69.40;;;;;;5076033;28;1722;-70
2022/06/29 04:42:26;;;;;;;;;;;22.10;69.40;;;;;;5076014;28;1270;-69
2022/06/29 04:44:52;;;;;;;;;;;22.10;69.40;;;;;;5057820;28;1898;-70
2022/06/29 04:47:18;;;;;;;;;;;22.10;69.40;;;;;;5076312;28;1307;-69
2022/06/29 04:49:43;;;;;;;;;;;22.10;69.40;;;;;;5076268;28;1273;-70
2022/06/29 04:52:09;;;;;;;;;;;22.10;69.40;;;;;;5075665;28;1379;-69
2022/06/29 04:54:34;;;;;;;;;;;22.10;69.40;;;;;;5074940;28;1282;-69
2022/06/29 04:57:00;;;;;;;;;;;22.10;69.40;;;;;;5075681;28;1377;-70
2022/06/29 04:59:25;;;;;;;;;;;22.10;69.40;;;;;;5076250;28;1359;-70
2022/06/29 05:01:50;;;;;;;;;;;22.10;69.40;;;;;;5057457;28;1291;-70
2022/06/29 05:04:16;;;;;;;;;;;22.10;69.40;;;;;;5075184;28;1906;-70
2022/06/29 05:06:41;;;;;;;;;;;22.10;69.40;;;;;;5075781;28;1266;-70
2022/06/29 05:09:07;;;;;;;;;;;22.10;69.50;;;;;;5057545;28;1087;-69
2022/06/29 05:11:32;;;;;;;;;;;22.10;69.40;;;;;;5074641;28;1326;-70
2022/06/29 05:13:58;;;;;;;;;;;22.10;69.40;;;;;;5057236;28;1378;-70
2022/06/29 05:16:23;;;;;;;;;;;22.10;69.40;;;;;;5057700;28;1386;-70
2022/06/29 05:18:49;;;;;;;;;;;22.10;69.50;;;;;;5075195;28;1276;-69
2022/06/29 05:21:15;;;;;;;;;;;22.10;69.50;;;;;;5057335;28;1380;-69
2022/06/29 05:23:41;;;;;;;;;;;22.10;69.50;;;;;;5056847;28;1913;-69
2022/06/29 05:26:07;;;;;;;;;;;22.10;69.40;;;;;;5057103;28;1253;-69
2022/06/29 05:28:33;;;;;;;;;;;22.10;69.50;;;;;;5075699;28;1043;-70
2022/06/29 05:30:59;;;;;;;;;;;22.10;69.40;;;;;;5075097;28;1341;-69
2022/06/29 05:33:24;;;;;;;;;;;22.10;69.50;;;;;;5075481;28;1043;-69
2022/06/29 05:35:50;;;;;;;;;;;22.10;69.50;;;;;;5074718;28;1245;-70
2022/06/29 05:38:15;;;;;;;;;;;22.10;69.40;;;;;;5074684;28;1244;-69
2022/06/29 05:40:42;;;;;;;;;;;22.10;69.50;;;;;;5074553;28;1718;-69
2022/06/29 05:43:08;;;;;;;;;;;22.10;69.50;;;;;;5075015;28;1359;-69
2022/06/29 05:45:33;;;;;;;;;;;22.10;69.50;;;;;;5074322;28;1907;-70
2022/06/29 05:47:58;;;;;;;;;;;22.10;69.50;;;;;;5062937;28;1884;-70
2022/06/29 05:50:24;;;;;;;;;;;22.10;69.50;;;;;;5070871;28;1061;-70
2022/06/29 05:52:50;;;;;;;;;;;22.10;69.50;;;;;;5060568;28;1336;-70
2022/06/29 05:55:15;;;;;;;;;;;22.10;69.50;;;;;;5047981;28;1479;-70
2022/06/29 05:57:41;;;;;;;;;;;22.10;69.50;;;;;;5073910;28;1364;-68
2022/06/29 06:00:06;;;;;;;;;;;22.10;69.50;;;;;;5073459;28;1371;-67
2022/06/29 06:02:32;;;;;;;;;;;22.10;69.50;;;;;;5074464;28;1370;-67
2022/06/29 06:04:57;;;;;;;;;;;22.10;69.50;;;;;;5055541;28;2250;-68
2022/06/29 06:07:23;;;;;;;;;;;22.10;69.50;;;;;;5073621;28;1291;-65
2022/06/29 06:09:48;;;;;;;;;;;22.10;69.50;;;;;;5072925;28;1219;-67
2022/06/29 06:12:13;;;;;;;;;;;22.10;69.50;;;;;;5055404;28;1279;-69
2022/06/29 06:14:39;;;;;;;;;;;22.10;69.50;;;;;;5073288;28;1057;-69
2022/06/29 06:17:04;;;;;;;;;;;22.10;69.50;;;;;;5054609;28;1539;-68
2022/06/29 06:19:30;;;;;;;;;;;22.10;69.50;;;;;;5053446;28;1305;-68
2022/06/29 06:21:55;;;;;;;;;;;22.10;69.50;;;;;;5069684;28;1368;-71
2022/06/29 06:24:21;;;;;;;;;;;22.10;69.60;;;;;;5072649;28;1955;-67
2022/06/29 06:26:46;;;;;;;;;;;22.10;69.50;;;;;;5061119;28;1268;-68
2022/06/29 06:29:12;;;;;;;;;;;22.10;69.50;;;;;;5038505;28;1052;-68
2022/06/29 06:31:37;;;;;;;;;;;22.10;69.60;;;;;;5073248;28;1405;-68
2022/06/29 06:34:03;;;;;;;;;;;22.10;69.50;;;;;;5034888;28;1198;-69
2022/06/29 06:36:28;;;;;;;;;;;22.10;69.50;;;;;;5068724;28;1593;-71
2022/06/29 06:38:53;;;;;;;;;;;22.10;69.50;;;;;;5053115;28;1349;-70
2022/06/29 06:41:22;;;;;;;;;;;22.10;69.60;;;;;;5059846;28;1204;-67
2022/06/29 06:43:51;;;;;;;;;;;22.10;69.60;;;;;;5072765;28;1890;-67
2022/06/29 06:46:16;;;;;;;;;;;22.10;70.30;;;;;;5066578;28;1215;-66
2022/06/29 06:48:44;;;;;;;;;;;22.10;69.50;;;;;;5054347;28;1372;-66
2022/06/29 06:51:10;;;;;;;;;;;22.10;69.50;;;;;;5071864;28;1397;-67
2022/06/29 06:53:37;;;;;;;;;;;22.10;69.60;;;;;;5054954;28;1294;-66
2022/06/29 06:56:03;;;;;;;;;;;22.10;69.50;;;;;;5054172;28;1312;-66
2022/06/29 06:58:28;;;;;;;;;;;22.10;69.60;;;;;;5072723;28;1254;-70
2022/06/29 07:00:53;;;;;;;;;;;22.10;69.60;;;;;;5073404;28;1733;-69
2022/06/29 07:03:19;;;;;;;;;;;22.10;69.60;;;;;;5073204;28;1914;-69
2022/06/29 07:05:44;;;;;;;;;;;22.10;69.60;;;;;;5071798;28;1340;-69
2022/06/29 07:08:10;;;;;;;;;;;22.10;69.60;;;;;;5055677;28;1279;-69
2022/06/29 07:10:35;;;;;;;;;;;22.10;69.60;;;;;;5055562;28;1292;-69
2022/06/29 07:13:01;;;;;;;;;;;22.10;69.60;;;;;;5078301;22;1902;-75
2022/06/29 07:15:26;;;;;;;;;;;22.10;69.60;;;;;;5019556;28;1614;-75
2022/06/29 07:17:52;;;;;;;;;;;22.10;69.60;;;;;;5047895;28;1135;-75
2022/06/29 07:20:17;;;;;;;;;;;22.10;69.60;;;;;;5032011;28;1334;-75
2022/06/29 07:22:43;;;;;;;;;;;22.10;69.60;;;;;;5034305;28;1102;-75
2022/06/29 07:25:08;;;;;;;;;;;22.10;69.60;;;;;;5048271;28;1917;-75
2022/06/29 07:27:33;;;;;;;;;;;22.10;69.60;;;;;;5014588;28;1317;-75
2022/06/29 07:29:59;;;;;;;;;;;22.10;69.60;;;;;;5046565;28;1892;-75
2022/06/29 07:32:25;;;;;;;;;;;22.10;69.60;;;;;;5031131;28;1419;-75
2022/06/29 07:34:51;;;;;;;;;;;22.10;69.60;;;;;;5031247;28;1363;-75
2022/06/29 07:37:16;;;;;;;;;;;22.10;69.60;;;;;;5033001;28;1312;-75
2022/06/29 07:39:42;;;;;;;;;;;22.10;69.60;;;;;;5026187;28;1339;-75
2022/06/29 07:42:07;;;;;;;;;;;22.10;69.60;;;;;;5052124;28;1292;-75
2022/06/29 07:44:32;;;;;;;;;;;22.10;69.60;;;;;;5033190;28;1962;-75
2022/06/29 07:46:58;;;;;;;;;;;22.10;69.70;;;;;;5034056;28;1577;-75
2022/06/29 07:49:23;;;;;;;;;;;22.10;69.60;;;;;;5016751;28;1201;-75
2022/06/29 07:51:49;;;;;;;;;;;22.10;69.60;;;;;;5034012;28;1049;-75
2022/06/29 07:54:15;;;;;;;;;;;22.10;69.60;;;;;;5033121;28;1273;-75
2022/06/29 07:56:40;;;;;;;;;;;22.10;69.70;;;;;;5033871;28;1321;-75
2022/06/29 07:59:05;;;;;;;;;;;22.10;69.70;;;;;;5033628;28;1191;-75
2022/06/29 08:01:31;;;;;;;;;;;22.10;69.60;;;;;;5033825;28;1068;-75
2022/06/29 08:03:57;;;;;;;;;;;22.10;69.70;;;;;;5016444;28;1902;-75
2022/06/29 08:06:23;;;;;;;;;;;22.10;69.70;;;;;;5033434;28;1334;-75
2022/06/29 08:08:48;;;;;;;;;;;22.10;69.70;;;;;;5033566;28;1301;-75
2022/06/29 08:11:14;;;;;;;;;;;22.10;69.70;;;;;;5016917;28;1328;-75
2022/06/29 08:13:39;;;;;;;;;;;22.10;69.70;;;;;;5033039;28;1417;-75
2022/06/29 08:16:06;;;;;;;;;;;22.10;69.70;;;;;;5033465;28;1079;-75
2022/06/29 08:18:32;;;;;;;;;;;22.10;69.70;;;;;;5033805;28;1317;-75
2022/06/29 08:20:57;;;;;;;;;;;22.10;69.70;;;;;;5016969;28;1411;-75
2022/06/29 08:23:23;;;;;;;;;;;22.10;69.70;;;;;;5051253;28;1969;-75
2022/06/29 08:25:48;;;;;;;;;;;22.10;69.70;;;;;;5050810;28;1349;-75
2022/06/29 08:28:14;;;;;;;;;;;22.10;69.70;;;;;;5051326;28;1158;-76
2022/06/29 08:30:39;;;;;;;;;;;22.10;69.70;;;;;;5051226;28;1318;-75
2022/06/29 08:33:05;;;;;;;;;;;22.10;69.70;;;;;;5012672;28;1259;-76
2022/06/29 08:35:30;;;;;;;;;;;22.10;69.70;;;;;;5039734;28;1316;-76
2022/06/29 08:37:56;;;;;;;;;;;22.10;69.70;;;;;;5029661;28;1204;-76
2022/06/29 08:40:21;;;;;;;;;;;22.10;69.70;;;;;;5043358;28;1567;-76
2022/06/29 08:42:47;;;;;;;;;;;22.10;69.70;;;;;;5032690;28;1328;-76
2022/06/29 08:45:12;;;;;;;;;;;22.10;69.70;;;;;;5049408;28;1965;-76
2022/06/29 08:47:38;;;;;;;;;;;22.10;69.70;;;;;;5016309;28;1288;-76
2022/06/29 08:50:07;;;;;;;;;;;22.10;69.70;;;;;;5039707;28;1054;-76
2022/06/29 08:52:34;;;;;;;;;;;22.10;69.70;;;;;;5051072;28;1138;-75
2022/06/29 08:54:59;;;;;;;;;;;22.10;69.70;;;;;;5050979;28;1185;-76
2022/06/29 08:57:25;;;;;;;;;;;22.10;70.50;;;;;;5033032;28;1345;-75
2022/06/29 08:59:51;;;;;;;;;;;22.10;69.70;;;;;;5016717;28;1300;-75
2022/06/29 09:02:17;;;;;;;;;;;22.10;69.70;;;;;;5033186;28;1080;-75
2022/06/29 09:04:42;;;;;;;;;;;22.10;69.70;;;;;;5040204;28;1890;-75
2022/06/29 09:07:08;;;;;;;;;;;22.10;69.70;;;;;;5047764;28;1008;-75
2022/06/29 09:09:52;;;;;;;;;;;22.10;69.80;;;;;;5006973;28;1197;-75
2022/06/29 09:12:18;;;;;;;;;;;22.10;69.80;;;;;;5033559;28;1131;-78
2022/06/29 09:14:43;;;;;;;;;;;22.10;69.80;;;;;;5033591;28;2440;-75
2022/06/29 09:17:10;;;;;;;;;;;22.10;69.70;;;;;;5047838;28;1393;-75
2022/06/29 09:19:35;;;;;;;;;;;22.10;69.70;;;;;;5033180;28;2066;-75
2022/06/29 09:22:01;;;;;;;;;;;22.10;69.70;;;;;;5045591;28;1659;-75
2022/06/29 09:24:28;;;;;;;;;;;22.10;69.80;;;;;;5036751;28;1984;-75
2022/06/29 09:26:58;;;;;;;;;;;22.10;69.80;;;;;;5036970;28;1219;-75
2022/06/29 09:29:24;;;;;;;;;;;22.10;69.80;;;;;;5037034;28;1426;-75
2022/06/29 09:32:04;;;;;;;;;;;22.10;69.80;;;;;;5037044;28;985;-75
2022/06/29 09:34:29;;;;;;;;;;;22.10;69.80;;;;;;5052402;28;1290;-76
2022/06/29 09:36:55;;;;;;;;;;;22.10;69.80;;;;;;5043538;28;1100;-76
2022/06/29 09:39:47;;;;;;;;;;;22.10;69.80;;;;;;5037098;28;1386;-76
2022/06/29 09:42:13;;;;;;;;;;;22.10;69.80;;;;;;5040622;28;1239;-75
2022/06/29 09:44:40;;;;;;;;;;;22.10;69.80;;;;;;5042251;28;1914;-75
2022/06/29 09:47:06;;;;;;;;;;;22.10;69.80;;;;;;5019219;28;1173;-76
2022/06/29 09:49:32;;;;;;;;;;;22.10;69.80;;;;;;5036240;28;1264;-75
2022/06/29 09:51:58;;;;;;;;;;;22.10;69.80;;;;;;5019570;28;1292;-76
2022/06/29 09:54:25;;;;;;;;;;;22.10;69.80;;;;;;5035468;28;1272;-75
2022/06/29 09:56:50;;;;;;;;;;;22.10;69.90;;;;;;5054171;28;1004;-76
2022/06/29 09:59:21;;;;;;;;;;;22.10;69.80;;;;;;5021755;28;1465;-75
2022/06/29 10:04:31;;;;;;;;;;;22.10;69.80;;;;;;5052561;28;1973;-75
2022/06/29 10:06:57;;;;;;;;;;;22.10;69.80;;;;;;5035282;28;1224;-76
2022/06/29 10:09:22;;;;;;;;;;;22.10;69.80;;;;;;5032716;28;1189;-75
2022/06/29 10:14:55;;;;;;;;;;;22.10;69.80;;;;;;5053295;28;1139;-76
2022/06/29 10:17:28;;;;;;;;;;;22.10;69.80;;;;;;5004158;28;1225;-76
2022/06/29 10:20:06;;;;;;;;;;;22.10;69.90;;;;;;5036078;28;1236;-75
2022/06/29 10:22:32;;;;;;;;;;;22.10;69.80;;;;;;5053462;28;1126;-75
2022/06/29 10:25:04;;;;;;;;;;;22.10;69.80;;;;;;5054007;28;1957;-76
2022/06/29 10:27:30;;;;;;;;;;;22.10;69.80;;;;;;5036363;28;1119;-75
2022/06/29 10:30:14;;;;;;;;;;;22.10;69.80;;;;;;5036402;28;1332;-76
2022/06/29 10:32:39;;;;;;;;;;;22.10;69.80;;;;;;5036296;28;1203;-75
2022/06/29 10:35:06;;;;;;;;;;;22.10;69.90;;;;;;5052070;28;1382;-75
2022/06/29 10:37:31;;;;;;;;;;;22.10;69.80;;;;;;5018998;28;1313;-76
2022/06/29 10:39:59;;;;;;;;;;;22.10;69.80;;;;;;5019321;28;1610;-76
2022/06/29 10:45:13;;;;;;;;;;;22.10;69.80;;;;;;5053395;28;1989;-76
2022/06/29 10:47:45;;;;;;;;;;;22.10;69.90;;;;;;5053493;28;1036;-77
2022/06/29 10:50:13;;;;;;;;;;;22.10;69.90;;;;;;5053076;28;1131;-75
2022/06/29 10:52:39;;;;;;;;;;;22.10;69.30;;;;;;5052587;28;1357;-75
2022/06/29 10:55:05;;;;;;;;;;;22.10;68.80;;;;;;5024776;28;1295;-75
2022/06/29 10:57:34;;;;;;;;;;;22.10;68.30;;;;;;5050009;28;1311;-75
2022/06/29 10:59:59;;;;;;;;;;;22.10;67.40;;;;;;5035189;28;1158;-75
2022/06/29 11:02:24;;;;;;;;;;;22.10;67.10;;;;;;5018007;28;1300;-75
2022/06/29 11:04:50;;;;;;;;;;;22.10;66.30;;;;;;5034266;28;1990;-75
2022/06/29 11:12:50;;;;;;;;;;;22.10;65.40;;;;;;5037028;28;1096;-75
2022/06/29 11:15:47;;;;;;;;;;;22.10;64.70;;;;;;5034075;28;1288;-75
2022/06/29 11:18:13;;;;;;;;;;;22.10;64.80;;;;;;5037023;28;1068;-75
2022/06/29 11:20:42;;;;;;;;;;;22.20;64.40;;;;;;5034918;28;1080;-75
2022/06/29 11:23:08;;;;;;;;;;;22.10;64.10;;;;;;5034131;28;1355;-75
2022/06/29 11:25:37;;;;;;;;;;;22.10;62.90;;;;;;5033904;28;1914;-75
2022/06/29 11:28:02;;;;;;;;;;;22.10;62.00;;;;;;5018550;28;1135;-75
2022/06/29 11:30:28;;;;;;;;;;;22.20;62.00;;;;;;5032828;28;1062;-75
2022/06/29 11:32:53;;;;;;;;;;;22.10;62.00;;;;;;5033062;28;1339;-75
2022/06/29 11:35:21;;;;;;;;;;;22.20;62.10;;;;;;5051392;28;1236;-75
2022/06/29 11:37:46;;;;;;;;;;;22.20;61.40;;;;;;5017531;28;1290;-75
2022/06/29 11:40:12;;;;;;;;;;;22.10;60.90;;;;;;5052323;28;1605;-75
2022/06/29 11:45:22;;;;;;;;;;;22.10;60.90;;;;;;5036540;28;1902;-75
2022/06/29 11:47:54;;;;;;;;;;;22.10;60.00;;;;;;5025399;28;1527;-75
2022/06/29 11:50:20;;;;;;;;;;;22.10;60.00;;;;;;5017533;28;1652;-78
2022/06/29 11:52:47;;;;;;;;;;;22.10;60.20;;;;;;5017138;28;1281;-75
2022/06/29 11:55:12;;;;;;;;;;;22.10;59.30;;;;;;5030643;28;1355;-75
2022/06/29 11:57:38;;;;;;;;;;;22.10;59.90;;;;;;5046001;28;1104;-75
2022/06/29 12:00:06;;;;;;;;;;;22.10;59.80;;;;;;5026472;28;1276;-75
2022/06/29 12:02:35;;;;;;;;;;;22.10;59.10;;;;;;5017349;28;1289;-74
2022/06/29 12:05:01;;;;;;;;;;;22.10;57.50;;;;;;5033531;28;1894;-76
2022/06/29 12:07:28;;;;;;;;;;;22.10;58.20;;;;;;5051677;28;1095;-76
2022/06/29 12:09:54;;;;;;;;;;;22.10;56.70;;;;;;5017199;28;1646;-75
2022/06/29 12:12:19;;;;;;;;;;;22.10;56.50;;;;;;5020728;28;1118;-75
2022/06/29 12:14:45;;;;;;;;;;;22.10;57.90;;;;;;5032825;28;1197;-75
2022/06/29 12:17:11;;;;;;;;;;;22.10;58.40;;;;;;5051699;28;1171;-75
2022/06/29 12:19:38;;;;;;;;;;;22.10;57.50;;;;;;5005498;28;1365;-75
2022/06/29 12:22:03;;;;;;;;;;;22.10;56.30;;;;;;5051738;28;1179;-75
2022/06/29 12:24:29;;;;;;;;;;;22.10;56.90;;;;;;5032791;28;1910;-75
2022/06/29 12:26:54;;;;;;;;;;;22.10;57.20;;;;;;5033941;28;1248;-75
2022/06/29 12:29:20;;;;;;;;;;;22.10;57.20;;;;;;5017276;28;1158;-75
2022/06/29 12:31:45;;;;;;;;;;;22.10;56.50;;;;;;5051657;28;1489;-77
2022/06/29 12:34:11;;;;;;;;;;;22.10;56.10;;;;;;5051099;28;1385;-75
2022/06/29 12:36:36;;;;;;;;;;;22.10;56.40;;;;;;5051340;28;1028;-75
2022/06/29 12:39:02;;;;;;;;;;;22.10;55.50;;;;;;5033604;28;1926;-74
2022/06/29 12:41:28;;;;;;;;;;;22.10;56.40;;;;;;5051570;28;1119;-74
2022/06/29 12:43:53;;;;;;;;;;;22.10;56.00;;;;;;5033336;28;1902;-74
2022/06/29 12:46:19;;;;;;;;;;;22.10;55.80;;;;;;5052732;28;1397;-75
2022/06/29 12:48:44;;;;;;;;;;;22.10;56.40;;;;;;5020885;28;1151;-75
2022/06/29 12:51:09;;;;;;;;;;;22.10;56.30;;;;;;5037490;28;1448;-74
2022/06/29 12:53:35;;;;;;;;;;;22.10;56.10;;;;;;5020696;28;1370;-75
2022/06/29 12:56:01;;;;;;;;;;;22.20;56.80;;;;;;5037172;28;1409;-75
2022/06/29 12:58:27;;;;;;;;;;;22.10;56.60;;;;;;5037096;28;1322;-75
2022/06/29 13:00:53;;;;;;;;;;;22.20;56.30;;;;;;5055242;28;1273;-75
2022/06/29 13:03:18;;;;;;;;;;;22.20;56.60;;;;;;5020644;28;1393;-75
2022/06/29 13:05:43;;;;;;;;;;;22.20;57.10;;;;;;5036418;28;1894;-76
2022/06/29 13:08:10;;;;;;;;;;;22.20;57.20;;;;;;5054725;28;1281;-75
2022/06/29 13:10:35;;;;;;;;;;;22.20;56.10;;;;;;5037738;28;1112;-75
2022/06/29 13:13:01;;;;;;;;;;;22.10;56.80;;;;;;5020540;28;1455;-75
2022/06/29 13:15:26;;;;;;;;;;;22.20;55.80;;;;;;5093359;22;3608;-73
2022/06/29 13:17:52;;;;;;;;;;;22.10;55.20;;;;;;5094418;28;1111;-73
2022/06/29 13:20:18;;;;;;;;;;;22.10;56.30;;;;;;5096047;28;1141;-72
2022/06/29 13:22:44;;;;;;;;;;;22.10;55.80;;;;;;5095738;28;1314;-73
2022/06/29 13:25:10;;;;;;;;;;;22.10;55.80;;;;;;5076608;28;1917;-73
2022/06/29 13:27:35;;;;;;;;;;;22.10;55.50;;;;;;5086402;28;1059;-72
2022/06/29 13:30:00;;;;;;;;;;;22.20;55.70;;;;;;5095689;28;1050;-73
2022/06/29 13:32:26;;;;;;;;;;;22.10;56.20;;;;;;5095556;28;1324;-73
2022/06/29 13:34:52;;;;;;;;;;;22.10;56.30;;;;;;5076753;28;1240;-73
2022/06/29 13:37:17;;;;;;;;;;;22.10;55.50;;;;;;5075101;28;1059;-73
2022/06/29 13:39:42;;;;;;;;;;;22.10;55.20;;;;;;5075061;28;1299;-73
2022/06/29 13:42:08;;;;;;;;;;;22.10;56.70;;;;;;5075176;28;1280;-73
2022/06/29 13:44:33;;;;;;;;;;;22.10;57.10;;;;;;5071812;28;2099;-73
2022/06/29 13:46:59;;;;;;;;;;;22.10;56.40;;;;;;5064065;28;1113;-73
2022/06/29 13:49:24;;;;;;;;;;;22.10;55.70;;;;;;5079794;28;1141;-73
2022/06/29 13:51:50;;;;;;;;;;;22.10;55.60;;;;;;5074509;28;1321;-73
2022/06/29 13:54:15;;;;;;;;;;;22.10;55.70;;;;;;5091694;28;1247;-72
2022/06/29 13:56:41;;;;;;;;;;;22.10;55.80;;;;;;5093434;28;1061;-72
2022/06/29 13:59:06;;;;;;;;;;;22.10;55.40;;;;;;5094888;28;1046;-72
2022/06/29 14:01:32;;;;;;;;;;;22.10;55.20;;;;;;5095045;28;1537;-72
2022/06/29 14:03:57;;;;;;;;;;;22.10;55.20;;;;;;5093274;28;1894;-72
2022/06/29 14:06:23;;;;;;;;;;;22.10;55.20;;;;;;5094817;28;1256;-72
2022/06/29 14:08:49;;;;;;;;;;;22.10;55.90;;;;;;5093631;28;1269;-73
2022/06/29 14:11:15;;;;;;;;;;;22.10;55.70;;;;;;5094867;28;1299;-73
2022/06/29 14:13:41;;;;;;;;;;;22.10;55.60;;;;;;5093218;28;1349;-72
2022/06/29 14:16:06;;;;;;;;;;;22.10;55.80;;;;;;5093521;28;1241;-72
2022/06/29 14:18:33;;;;;;;;;;;22.20;55.30;;;;;;5091133;28;1102;-73
2022/06/29 14:20:59;;;;;;;;;;;22.10;55.10;;;;;;5074551;28;1066;-72
2022/06/29 14:23:24;;;;;;;;;;;22.20;55.40;;;;;;5089287;28;1200;-72
2022/06/29 14:25:50;;;;;;;;;;;22.20;55.20;;;;;;5092548;28;1973;-69
2022/06/29 14:28:16;;;;;;;;;;;22.20;55.50;;;;;;5091318;28;1368;-70
2022/06/29 14:30:41;;;;;;;;;;;22.10;56.70;;;;;;5083145;28;1136;-69
2022/06/29 14:33:06;;;;;;;;;;;22.10;58.50;;;;;;5088028;28;1264;-69
2022/06/29 14:35:32;;;;;;;;;;;22.10;58.70;;;;;;5073982;28;1029;-69
2022/06/29 14:37:57;;;;;;;;;;;22.10;58.90;;;;;;5091525;28;840;-69
2022/06/29 14:40:23;;;;;;;;;;;22.10;59.30;;;;;;5080552;28;1575;-71
2022/06/29 14:42:50;;;;;;;;;;;22.10;59.40;;;;;;5086397;28;1052;-70
2022/06/29 14:45:16;;;;;;;;;;;22.10;59.50;;;;;;5084117;28;1910;-70